Time;durP1;ratioP1;P1;durP2;ratioP2;P2;SDS_P1;SDS_P2;PMS_P1;PMS_P2;Temp;Humidity;BMP_temperature;BMP_pressure;BME280_temperature;BME280_humidity;BME280_pressure;Samples;Min_cycle;Max_cycle;Signal;HPM_P1;HPM_P2
2022/11/03 00:01:52;;;;;;;31.88;15.10;;;;;;;9.00;100.00;99381.16;5174699;27;20429;-48
2022/11/03 00:04:20;;;;;;;33.15;15.68;;;;;;;9.01;100.00;99380.00;5174578;27;20489;-47
2022/11/03 00:06:48;;;;;;;44.53;17.98;;;;;;;8.99;100.00;99376.81;5174384;27;20557;-47
2022/11/03 00:09:16;;;;;;;45.40;19.75;;;;;;;8.98;100.00;99383.44;5174609;27;20114;-47
2022/11/03 00:11:43;;;;;;;41.40;20.20;;;;;;;8.91;100.00;99373.09;5174227;27;20083;-50
2022/11/03 00:14:11;;;;;;;42.00;18.30;;;;;;;8.92;100.00;99368.44;5174525;27;20082;-47
2022/11/03 00:16:38;;;;;;;40.88;18.13;;;;;;;8.94;100.00;99369.69;5174210;27;20137;-47
2022/11/03 00:19:06;;;;;;;35.05;17.05;;;;;;;8.98;100.00;99367.03;5174407;27;20053;-48
2022/11/03 00:21:33;;;;;;;43.85;17.75;;;;;;;9.01;100.00;99369.06;5174218;27;20050;-49
2022/11/03 00:24:01;;;;;;;38.50;16.23;;;;;;;8.94;100.00;99364.22;5174196;27;20088;-47
2022/11/03 00:26:28;;;;;;;35.53;16.27;;;;;;;8.97;100.00;99365.47;5174117;27;20515;-48
2022/11/03 00:28:56;;;;;;;31.52;15.70;;;;;;;8.85;100.00;99360.03;5174167;27;20050;-50
2022/11/03 00:31:24;;;;;;;32.97;15.15;;;;;;;8.89;100.00;99350.78;5174072;27;20062;-48
2022/11/03 00:33:50;;;;;;;32.00;16.33;;;;;;;8.87;100.00;99353.06;5173986;27;20042;-47
2022/11/03 00:36:19;;;;;;;34.10;17.58;;;;;;;8.91;100.00;99343.03;5174105;27;20079;-48
2022/11/03 00:38:46;;;;;;;44.55;17.48;;;;;;;8.98;100.00;99333.44;5174169;27;20142;-47
2022/11/03 00:41:13;;;;;;;41.33;18.67;;;;;;;8.92;100.00;99352.03;5174218;27;20054;-47
2022/11/03 00:43:40;;;;;;;36.05;17.40;;;;;;;8.98;100.00;99358.84;5173834;27;20142;-47
2022/11/03 00:46:07;;;;;;;36.42;17.83;;;;;;;8.98;100.00;99361.56;5174117;27;20529;-48
2022/11/03 00:48:34;;;;;;;32.70;15.45;;;;;;;8.95;100.00;99376.72;5174066;27;20580;-51
2022/11/03 00:51:03;;;;;;;27.38;14.95;;;;;;;8.97;100.00;99376.41;5173966;27;20053;-49
2022/11/03 00:53:31;;;;;;;42.28;17.35;;;;;;;9.01;100.00;99371.03;5173602;27;20050;-49
2022/11/03 00:55:58;;;;;;;34.90;16.17;;;;;;;8.98;100.00;99379.91;5173628;27;20046;-50
2022/11/03 00:58:24;;;;;;;33.60;18.25;;;;;;;9.02;100.00;99378.84;5173579;27;20050;-47
2022/11/03 01:00:50;;;;;;;44.65;17.98;;;;;;;9.02;100.00;99381.59;5173667;27;20054;-47
2022/11/03 01:03:17;;;;;;;33.22;15.48;;;;;;;9.09;100.00;99391.94;5173625;27;20052;-50
2022/11/03 01:08:32;;;;;;;37.63;15.45;;;;;;;8.95;100.00;99384.94;5173846;27;20138;-51
2022/11/03 01:13:49;;;;;;;30.85;15.85;;;;;;;8.97;100.00;99373.66;5173573;27;20539;-50
2022/11/03 01:16:15;;;;;;;32.55;15.35;;;;;;;8.88;100.00;99364.81;5173379;27;20086;-48
2022/11/03 01:18:42;;;;;;;36.55;15.85;;;;;;;8.93;100.00;99356.38;5173426;27;20042;-47
2022/11/03 01:21:08;;;;;;;29.98;14.52;;;;;;;8.86;100.00;99356.97;5173259;27;20061;-50
2022/11/03 01:23:35;;;;;;;28.63;14.23;;;;;;;8.79;100.00;99323.16;5173585;27;20568;-50
2022/11/03 01:26:04;;;;;;;33.03;14.82;;;;;;;8.84;100.00;99325.66;5173481;27;20492;-48
2022/11/03 01:28:30;;;;;;;26.17;14.00;;;;;;;8.93;100.00;99307.16;5173368;27;20046;-48
2022/11/03 01:31:02;;;;;;;33.83;15.18;;;;;;;9.00;100.00;99312.81;5173407;27;20050;-49
2022/11/03 01:33:29;;;;;;;26.45;14.70;;;;;;;9.16;100.00;99335.50;5172827;27;20046;-48
2022/11/03 01:35:55;;;;;;;29.92;15.18;;;;;;;9.15;100.00;99346.78;5172959;27;20058;-47
2022/11/03 01:38:21;;;;;;;34.42;15.65;;;;;;;9.15;100.00;99358.50;5172866;27;20054;-47
2022/11/03 01:40:48;;;;;;;34.22;15.38;;;;;;;9.10;100.00;99375.19;5172794;27;20163;-48
2022/11/03 01:43:15;;;;;;;33.13;14.60;;;;;;;9.15;100.00;99372.19;5172901;27;20488;-47
2022/11/03 01:45:42;;;;;;;37.35;15.15;;;;;;;9.09;100.00;99372.78;5172998;27;20118;-46
2022/11/03 01:48:10;;;;;;;36.08;16.00;;;;;;;9.17;100.00;99377.31;5172865;27;20416;-47
2022/11/03 01:50:38;;;;;;;40.78;15.80;;;;;;;9.12;100.00;99369.34;5172573;27;20046;-47
2022/11/03 01:53:04;;;;;;;36.88;16.77;;;;;;;9.13;100.00;99369.03;5172697;27;20046;-47
2022/11/03 01:55:34;;;;;;;43.58;18.35;;;;;;;9.12;100.00;99355.69;5171747;27;20099;-47
2022/11/03 01:58:05;;;;;;;76.68;28.23;;;;;;;9.09;100.00;99359.91;5173036;27;20402;-48
2022/11/03 02:00:32;;;;;;;77.55;30.25;;;;;;;9.12;100.00;99364.69;5172453;27;20424;-47
2022/11/03 02:03:00;;;;;;;36.45;17.85;;;;;;;9.06;100.00;99373.50;5172482;27;20057;-47
2022/11/03 02:05:28;;;;;;;37.63;16.15;;;;;;;9.08;100.00;99361.06;5172534;27;20056;-48
2022/11/03 02:07:59;;;;;;;36.83;17.55;;;;;;;9.11;100.00;99356.84;5172572;27;20104;-47
2022/11/03 02:10:26;;;;;;;37.25;17.17;;;;;;;9.13;100.00;99360.00;5172393;27;20091;-47
2022/11/03 02:12:52;;;;;;;37.95;17.02;;;;;;;9.16;100.00;99362.03;5172241;27;20133;-49
2022/11/03 02:15:21;;;;;;;36.30;16.50;;;;;;;9.18;100.00;99366.00;5172541;27;20053;-47
2022/11/03 02:17:50;;;;;;;41.28;16.63;;;;;;;9.20;100.00;99371.16;5172306;27;20050;-47
2022/11/03 02:20:20;;;;;;;41.47;16.90;;;;;;;9.17;100.00;99371.84;5172691;27;20046;-47
2022/11/03 02:23:23;;;;;;;36.70;17.48;;;;;;;9.19;100.00;99375.81;5172197;27;20053;-47
2022/11/03 02:25:52;;;;;;;30.60;15.20;;;;;;;9.22;100.00;99376.25;5172221;27;20050;-48
2022/11/03 02:28:20;;;;;;;33.92;15.50;;;;;;;9.12;100.00;99383.81;5172492;27;20085;-50
2022/11/03 02:30:54;;;;;;;30.75;14.20;;;;;;;9.13;100.00;99379.97;5172303;27;20576;-48
2022/11/03 02:33:35;;;;;;;36.55;14.70;;;;;;;9.17;100.00;99371.84;5172376;27;20485;-50
2022/11/03 02:36:09;;;;;;;44.92;16.80;;;;;;;9.18;100.00;99370.69;5172391;27;20161;-46
2022/11/03 02:38:42;;;;;;;41.88;17.55;;;;;;;9.09;100.00;99372.78;5172166;27;20493;-47
2022/11/03 02:41:12;;;;;;;35.45;15.20;;;;;;;9.13;100.00;99370.94;5171937;27;20137;-48
2022/11/03 02:43:40;;;;;;;43.55;15.40;;;;;;;9.11;100.00;99357.63;5172388;27;20088;-47
2022/11/03 02:46:08;;;;;;;43.20;15.68;;;;;;;9.15;100.00;99363.19;5171961;27;20074;-47
2022/11/03 02:48:34;;;;;;;37.25;14.77;;;;;;;9.18;100.00;99365.22;5172144;27;20098;-47
2022/11/03 02:51:03;;;;;;;36.30;14.98;;;;;;;9.17;100.00;99369.13;5172004;27;20141;-46
2022/11/03 02:53:30;;;;;;;36.35;16.45;;;;;;;9.13;100.00;99365.47;5171869;27;20050;-46
2022/11/03 02:56:03;;;;;;;36.20;16.23;;;;;;;9.11;100.00;99349.41;5172173;27;20042;-47
2022/11/03 02:58:37;;;;;;;38.90;14.93;;;;;;;9.14;100.00;99347.94;5171763;27;20509;-47
2022/11/03 03:01:19;;;;;;;30.15;16.05;;;;;;;9.14;100.00;99345.19;5172102;27;20539;-48
2022/11/03 03:03:48;;;;;;;35.33;15.80;;;;;;;9.15;100.00;99342.09;5171586;27;20061;-46
2022/11/03 03:06:20;;;;;;;30.75;14.82;;;;;;;9.18;100.00;99338.66;5171993;27;20187;-47
2022/11/03 03:08:53;;;;;;;31.80;14.98;;;;;;;9.16;100.00;99342.88;5175277;27;20046;-46
2022/11/03 03:11:35;;;;;;;37.20;15.40;;;;;;;9.14;100.00;99350.66;5175484;27;20050;-47
2022/11/03 03:14:05;;;;;;;37.05;16.05;;;;;;;9.19;100.00;99348.44;5175388;27;20046;-48
2022/11/03 03:16:38;;;;;;;30.65;15.82;;;;;;;9.22;100.00;99352.44;5175407;27;20061;-48
2022/11/03 03:19:16;;;;;;;39.25;16.95;;;;;;;9.24;100.00;99344.69;5175540;27;20455;-48
2022/11/03 03:21:45;;;;;;;36.85;17.20;;;;;;;9.29;100.00;99349.88;5175090;27;20497;-47
2022/11/03 03:24:18;;;;;;;33.47;14.90;;;;;;;9.31;100.00;99355.81;5175363;27;20591;-46
2022/11/03 03:26:48;;;;;;;36.50;15.63;;;;;;;9.27;100.00;99357.66;5175212;27;20046;-49
2022/11/03 03:29:20;;;;;;;29.48;14.85;;;;;;;9.30;100.00;99361.63;5174987;27;20050;-48
2022/11/03 03:31:53;;;;;;;32.83;14.35;;;;;;;9.30;100.00;99367.91;5175056;27;20454;-48
2022/11/03 03:34:21;;;;;;;34.70;14.80;;;;;;;9.18;100.00;99371.50;5174821;27;20046;-49
2022/11/03 03:36:50;;;;;;;59.58;15.30;;;;;;;9.15;100.00;99363.19;5175120;27;20505;-47
2022/11/03 03:39:19;;;;;;;31.25;14.27;;;;;;;9.08;100.00;99349.31;5174818;27;20077;-48
2022/11/03 03:41:47;;;;;;;27.35;13.30;;;;;;;9.17;100.00;99334.34;5174756;27;20098;-47
2022/11/03 03:44:16;;;;;;;33.22;15.43;;;;;;;9.18;100.00;99318.72;5174692;27;20136;-49
2022/11/03 03:46:47;;;;;;;36.13;14.40;;;;;;;9.13;100.00;99317.06;5174940;27;20659;-47
2022/11/03 03:49:14;;;;;;;31.92;14.43;;;;;;;9.19;100.00;99323.03;5175074;27;20465;-47
2022/11/03 03:51:41;;;;;;;34.50;14.48;;;;;;;9.23;100.00;99328.59;5174682;27;20054;-46
2022/11/03 03:54:07;;;;;;;34.03;15.82;;;;;;;9.06;100.00;99327.00;5174861;27;20101;-46
2022/11/03 03:56:40;;;;;;;31.50;15.13;;;;;;;9.07;100.00;99312.19;5174559;27;20509;-47
2022/11/03 03:59:07;;;;;;;37.60;15.30;;;;;;;9.10;100.00;99303.28;5174731;27;20046;-46
2022/11/03 04:01:34;;;;;;;31.58;15.82;;;;;;;9.13;100.00;99292.44;5174519;27;20061;-47
2022/11/03 04:04:00;;;;;;;31.33;14.65;;;;;;;9.21;100.00;99285.19;5174681;27;20046;-46
2022/11/03 04:06:26;;;;;;;28.05;14.15;;;;;;;9.25;100.00;99282.56;5174195;27;20050;-47
2022/11/03 04:08:52;;;;;;;27.48;13.23;;;;;;;9.24;100.00;99298.19;5174503;27;20053;-48
2022/11/03 04:22:17;;;;;;;27.58;12.95;;;;;;;9.29;100.00;99305.31;5174635;27;20089;-47
2022/11/03 04:24:44;;;;;;;29.63;12.80;;;;;;;9.27;100.00;99305.69;5174292;27;20079;-47
2022/11/03 04:27:29;;;;;;;35.13;13.80;;;;;;;9.30;100.00;99310.44;5174198;27;20407;-46
2022/11/03 04:29:59;;;;;;;26.63;12.95;;;;;;;9.31;100.00;99311.25;5174160;27;20054;-46
2022/11/03 04:32:26;;;;;;;30.98;13.38;;;;;;;9.33;100.00;99309.75;5173995;27;20552;-46
2022/11/03 04:34:53;;;;;;;34.17;15.27;;;;;;;9.35;100.00;99307.44;5174233;27;20057;-46
2022/11/03 04:37:19;;;;;;;24.55;12.88;;;;;;;9.38;100.00;99312.19;5173970;27;20054;-46
2022/11/03 04:39:45;;;;;;;25.92;11.88;;;;;;;9.35;100.00;99315.63;5173896;27;20086;-47
2022/11/03 04:42:16;;;;;;;19.58;9.48;;;;;;;9.33;100.00;99319.88;5173705;27;20161;-48
2022/11/03 04:44:42;;;;;;;23.20;11.65;;;;;;;9.37;100.00;99323.50;5173572;27;20049;-47
2022/11/03 04:47:11;;;;;;;24.45;11.88;;;;;;;9.40;100.00;99320.06;5173618;27;20081;-48
2022/11/03 04:49:38;;;;;;;20.30;10.45;;;;;;;9.43;100.00;99324.84;5173634;27;20539;-47
2022/11/03 04:52:09;;;;;;;22.58;11.10;;;;;;;9.38;100.00;99333.31;5173695;27;20046;-47
2022/11/03 04:54:36;;;;;;;22.58;11.30;;;;;;;9.34;100.00;99337.91;5173448;27;20046;-48
2022/11/03 04:57:08;;;;;;;20.70;10.13;;;;;;;8.88;100.00;99330.06;5173775;27;20057;-46
2022/11/03 04:59:34;;;;;;;19.00;8.90;;;;;;;9.28;100.00;99315.47;5173607;27;20046;-48
2022/11/03 05:02:00;;;;;;;19.52;9.35;;;;;;;9.37;100.00;99316.09;5173528;27;20049;-50
2022/11/03 05:04:27;;;;;;;16.33;9.25;;;;;;;9.45;100.00;99319.78;5173447;27;20455;-47
2022/11/03 05:06:54;;;;;;;28.48;10.45;;;;;;;9.33;100.00;99325.34;5173476;27;20060;-51
2022/11/03 05:09:26;;;;;;;53.28;19.98;;;;;;;9.23;100.00;99302.06;5173333;27;20042;-49
2022/11/03 05:11:53;;;;;;;32.15;13.48;;;;;;;9.39;100.00;99289.16;5173120;27;20527;-48
2022/11/03 05:14:21;;;;;;;47.22;19.27;;;;;;;9.38;100.00;99303.19;5173400;27;20405;-46
2022/11/03 05:16:48;;;;;;;51.55;20.75;;;;;;;9.40;100.00;99315.38;5173268;27;20094;-46
2022/11/03 05:19:20;;;;;;;41.88;15.88;;;;;;;9.43;100.00;99319.38;5173381;27;20050;-51
2022/11/03 05:21:48;;;;;;;36.55;13.70;;;;;;;9.41;100.00;99327.13;5173042;27;20060;-47
2022/11/03 05:24:18;;;;;;;27.10;12.63;;;;;;;9.42;100.00;99332.22;5173276;27;20167;-48
2022/11/03 05:26:45;;;;;;;18.95;10.32;;;;;;;9.50;100.00;99329.69;5173047;27;20073;-47
2022/11/03 05:29:17;;;;;;;20.45;11.13;;;;;;;9.43;100.00;99339.31;5172074;27;20050;-48
2022/11/03 05:31:45;;;;;;;28.15;11.13;;;;;;;9.50;100.00;99344.16;5173063;27;20304;-47
2022/11/03 05:34:31;;;;;;;22.38;10.88;;;;;;;9.49;100.00;99358.97;5172963;27;20516;-48
2022/11/03 05:36:59;;;;;;;17.83;9.68;;;;;;;9.48;100.00;99362.09;5173368;27;20150;-51
2022/11/03 05:39:30;;;;;;;27.90;11.07;;;;;;;9.51;100.00;99372.31;5173014;27;20042;-48
2022/11/03 05:41:58;;;;;;;16.80;9.90;;;;;;;9.56;100.00;99375.59;5172914;27;20049;-47
2022/11/03 05:44:31;;;;;;;21.60;9.88;;;;;;;9.58;100.00;99375.25;5172609;27;20054;-50
2022/11/03 05:46:58;;;;;;;18.15;9.77;;;;;;;9.50;100.00;99387.16;5172997;27;20081;-51
2022/11/03 05:49:24;;;;;;;23.02;9.50;;;;;;;9.53;100.00;99383.69;5172426;27;20052;-49
2022/11/03 05:51:51;;;;;;;29.40;10.48;;;;;;;9.45;100.00;99382.72;5172878;27;20420;-49
2022/11/03 05:54:21;;;;;;;19.70;9.40;;;;;;;9.50;100.00;99374.28;5172319;27;20050;-48
2022/11/03 05:56:49;;;;;;;19.08;8.23;;;;;;;9.55;100.00;99374.00;5172652;27;20513;-47
2022/11/03 05:59:19;;;;;;;16.33;8.30;;;;;;;9.57;100.00;99371.72;5172534;27;20049;-50
2022/11/03 06:01:46;;;;;;;22.48;10.05;;;;;;;9.54;100.00;99374.38;5172425;27;20412;-47
2022/11/03 06:04:19;;;;;;;14.20;8.55;;;;;;;9.61;100.00;99374.53;5172519;27;20050;-47
2022/11/03 06:06:52;;;;;;;18.73;9.07;;;;;;;9.64;100.00;99360.16;5172375;27;20552;-48
2022/11/03 06:09:22;;;;;;;16.10;9.57;;;;;;;9.60;100.00;99378.44;5172748;27;20046;-50
2022/11/03 06:11:51;;;;;;;16.60;8.85;;;;;;;9.68;100.00;99374.72;5171918;27;20046;-52
2022/11/03 06:14:19;;;;;;;23.10;9.00;;;;;;;9.62;100.00;99373.38;5172154;27;20074;-48
2022/11/03 06:16:47;;;;;;;31.67;12.50;;;;;;;9.75;100.00;99372.16;5171802;27;20417;-51
2022/11/03 06:19:24;;;;;;;16.65;9.07;;;;;;;9.80;100.00;99373.84;5172362;27;20047;-57
2022/11/03 06:21:53;;;;;;;21.77;9.45;;;;;;;9.77;100.00;99369.06;5172360;27;20082;-55
2022/11/03 06:24:22;;;;;;;25.95;10.77;;;;;;;9.87;100.00;99369.31;5171829;27;20142;-50
2022/11/03 06:26:50;;;;;;;23.60;9.15;;;;;;;9.87;100.00;99382.22;5171935;27;20042;-52
2022/11/03 06:29:19;;;;;;;32.47;9.73;;;;;;;9.93;100.00;99379.97;5172074;27;20117;-52
2022/11/03 06:31:48;;;;;;;21.77;10.75;;;;;;;9.94;100.00;99385.13;5171841;27;20050;-50
2022/11/03 06:34:32;;;;;;;28.20;9.77;;;;;;;10.03;100.00;99390.41;5171879;27;20094;-49
2022/11/03 06:37:08;;;;;;;25.50;10.70;;;;;;;10.06;100.00;99393.25;5172408;27;20046;-48
2022/11/03 06:39:34;;;;;;;38.65;10.05;;;;;;;9.94;100.00;99400.75;5171783;27;20279;-49
2022/11/03 06:42:10;;;;;;;28.20;11.70;;;;;;;10.05;100.00;99393.59;5174801;27;20141;-48
2022/11/03 06:44:41;;;;;;;25.63;12.80;;;;;;;10.05;100.00;99388.09;5175913;27;20046;-50
2022/11/03 06:47:20;;;;;;;30.85;11.48;;;;;;;10.05;100.00;99388.09;5175350;27;20050;-50
2022/11/03 06:49:47;;;;;;;23.65;10.90;;;;;;;10.01;100.00;99392.72;5175894;27;20467;-49
2022/11/03 06:52:23;;;;;;;29.55;11.90;;;;;;;9.98;100.00;99396.94;5175652;27;20100;-51
2022/11/03 06:54:53;;;;;;;24.00;10.85;;;;;;;10.13;100.00;99400.84;5175522;27;20519;-49
2022/11/03 06:57:20;;;;;;;26.95;12.07;;;;;;;10.08;100.00;99398.34;5175255;27;20060;-49
2022/11/03 06:59:46;;;;;;;31.98;11.55;;;;;;;10.15;100.00;99398.53;5175149;27;20046;-49
2022/11/03 07:02:46;;;;;;;33.10;10.88;;;;;;;10.18;100.00;99400.53;5175278;27;20050;-47
2022/11/03 07:05:20;;;;;;;37.67;13.20;;;;;;;10.19;100.00;99404.88;5175200;27;20466;-48
2022/11/03 07:07:46;;;;;;;37.47;12.57;;;;;;;10.29;100.00;99406.28;5175660;27;20046;-49
2022/11/03 07:10:13;;;;;;;44.53;15.65;;;;;;;10.72;100.00;99397.06;5175243;27;20054;-53
2022/11/03 07:12:41;;;;;;;43.03;12.52;;;;;;;10.95;100.00;99408.09;5175236;27;20062;-50
2022/11/03 07:15:19;;;;;;;41.38;12.73;;;;;;;11.11;100.00;99438.22;5175294;27;20068;-49
2022/11/03 07:17:45;;;;;;;29.98;12.20;;;;;;;11.05;100.00;99478.84;5175369;27;20043;-52
2022/11/03 07:20:15;;;;;;;33.38;12.85;;;;;;;11.07;100.00;99503.22;5175057;27;20524;-50
2022/11/03 07:22:42;;;;;;;37.80;14.18;;;;;;;11.02;100.00;99517.19;5175128;27;20088;-50
2022/11/03 07:25:15;;;;;;;53.35;14.07;;;;;;;10.97;100.00;99520.22;5175002;27;20046;-49
2022/11/03 07:27:43;;;;;;;38.77;13.17;;;;;;;10.98;100.00;99513.59;5174867;27;20186;-52
2022/11/03 07:30:20;;;;;;;33.55;13.95;;;;;;;10.93;100.00;99519.34;5174778;27;20053;-50
2022/11/03 07:32:48;;;;;;;31.52;13.63;;;;;;;11.01;100.00;99508.16;5174589;27;20497;-48
2022/11/03 07:35:36;;;;;;;30.65;12.00;;;;;;;11.13;100.00;99507.25;5175323;27;20053;-48
2022/11/03 07:38:10;;;;;;;37.85;14.18;;;;;;;11.14;100.00;99514.31;5167316;27;20050;-48
2022/11/03 07:40:37;;;;;;;39.38;14.18;;;;;;;11.16;100.00;99511.22;5174663;27;20103;-52
2022/11/03 07:43:13;;;;;;;40.67;14.80;;;;;;;11.17;100.00;99505.38;5174774;27;20145;-51
2022/11/03 07:45:42;;;;;;;35.75;14.70;;;;;;;11.25;100.00;99495.34;5174453;27;20050;-48
2022/11/03 07:48:21;;;;;;;27.30;12.98;;;;;;;11.27;100.00;99493.81;5174500;27;20086;-50
2022/11/03 07:50:47;;;;;;;33.88;13.85;;;;;;;11.28;100.00;99498.16;5174384;27;20050;-50
2022/11/03 07:53:19;;;;;;;23.20;11.82;;;;;;;11.29;100.00;99498.94;5173789;27;20521;-48
2022/11/03 07:55:45;;;;;;;24.42;12.48;;;;;;;11.24;100.00;99511.00;5174454;27;20046;-50
2022/11/03 07:58:25;;;;;;;23.85;12.40;;;;;;;11.24;100.00;99496.50;5174488;27;20050;-49
2022/11/03 08:00:58;;;;;;;32.42;11.85;;;;;;;11.35;100.00;99477.50;5174568;27;20101;-49
2022/11/03 08:03:41;;;;;;;25.25;11.43;;;;;;;11.24;100.00;99502.78;5174182;27;20050;-51
2022/11/03 08:06:08;;;;;;;25.27;12.43;;;;;;;11.53;100.00;99497.88;5174415;27;20046;-50
2022/11/03 08:08:34;;;;;;;17.88;9.55;;;;;;;11.50;100.00;99502.13;5174040;27;20505;-48
2022/11/03 08:11:01;;;;;;;37.70;13.80;;;;;;;11.73;100.00;99521.41;5174329;27;20050;-49
2022/11/03 08:13:28;;;;;;;25.85;11.35;;;;;;;11.81;100.00;99527.00;5174312;27;20042;-46
2022/11/03 08:15:54;;;;;;;24.25;10.18;;;;;;;11.66;100.00;99534.19;5174105;27;20050;-46
2022/11/03 08:18:20;;;;;;;19.70;9.70;;;;;;;11.82;100.00;99536.84;5174096;27;20195;-50
2022/11/03 08:20:46;;;;;;;23.63;10.82;;;;;;;12.12;100.00;99565.28;5174426;27;20154;-47
2022/11/03 08:23:13;;;;;;;36.75;10.35;;;;;;;11.94;100.00;99577.91;5174344;27;20050;-47
2022/11/03 08:25:39;;;;;;;30.58;12.98;;;;;;;11.90;100.00;99577.84;5174052;27;20050;-47
2022/11/03 08:28:05;;;;;;;25.80;11.13;;;;;;;11.97;100.00;99569.75;5173966;27;20058;-49
2022/11/03 08:30:33;;;;;;;52.78;10.10;;;;;;;12.07;100.00;99579.34;5173728;27;20050;-48
2022/11/03 08:32:59;;;;;;;47.90;10.57;;;;;;;12.02;100.00;99585.13;5173904;27;20054;-47
2022/11/03 08:35:26;;;;;;;22.40;9.68;;;;;;;11.75;100.00;99587.72;5173554;27;20046;-47
2022/11/03 08:37:52;;;;;;;47.13;11.13;;;;;;;11.84;100.00;99581.22;5174060;27;20065;-48
2022/11/03 08:40:18;;;;;;;19.05;9.65;;;;;;;11.98;100.00;99579.56;5173706;27;20070;-48
2022/11/03 08:42:45;;;;;;;22.65;9.90;;;;;;;12.01;100.00;99598.06;5173903;27;20085;-49
2022/11/03 08:45:11;;;;;;;33.75;9.93;;;;;;;11.94;100.00;99599.91;5173691;27;20097;-48
2022/11/03 08:47:38;;;;;;;32.03;10.25;;;;;;;11.89;100.00;99608.44;5173773;27;20133;-51
2022/11/03 08:50:06;;;;;;;21.27;9.70;;;;;;;11.89;100.00;99603.72;5173384;27;20081;-47
2022/11/03 08:52:32;;;;;;;20.70;8.80;;;;;;;11.90;100.00;99610.03;5173404;27;20058;-47
2022/11/03 08:54:58;;;;;;;29.58;9.90;;;;;;;11.71;100.00;99608.06;5173784;27;20054;-48
2022/11/03 08:57:25;;;;;;;15.70;9.02;;;;;;;11.80;100.00;99594.91;5173184;27;20137;-48
2022/11/03 08:59:51;;;;;;;18.42;8.85;;;;;;;11.91;100.00;99598.66;5173362;27;20373;-48
2022/11/03 09:02:18;;;;;;;25.73;10.95;;;;;;;11.88;100.00;99606.84;5173256;27;20050;-50
2022/11/03 09:04:46;;;;;;;13.70;9.02;;;;;;;11.85;100.00;99607.56;5173445;27;20053;-47
2022/11/03 09:07:13;;;;;;;18.88;9.02;;;;;;;11.59;100.00;99608.19;5173144;27;20552;-51
2022/11/03 09:09:39;;;;;;;15.82;7.95;;;;;;;11.64;100.00;99600.47;5173549;27;20042;-48
2022/11/03 09:12:05;;;;;;;16.75;8.40;;;;;;;11.73;100.00;99600.25;5173248;27;20050;-48
2022/11/03 09:14:32;;;;;;;24.58;9.63;;;;;;;11.81;100.00;99612.16;5173368;27;20050;-47
2022/11/03 09:16:58;;;;;;;21.48;9.15;;;;;;;11.84;100.00;99612.28;5173216;27;20141;-48
2022/11/03 09:19:24;;;;;;;22.13;8.90;;;;;;;11.82;100.00;99619.25;5173010;27;20048;-48
2022/11/03 09:21:51;;;;;;;25.20;11.95;;;;;;;11.87;100.00;99627.25;5173513;27;20522;-50
2022/11/03 09:24:18;;;;;;;22.42;9.65;;;;;;;11.90;100.00;99610.03;5173040;27;20091;-47
2022/11/03 09:26:44;;;;;;;21.73;10.10;;;;;;;11.81;100.00;99614.91;5173200;27;20102;-50
2022/11/03 09:29:10;;;;;;;18.08;8.75;;;;;;;11.83;100.00;99613.41;5172884;27;20050;-47
2022/11/03 09:31:36;;;;;;;17.05;8.63;;;;;;;11.78;100.00;99608.97;5173182;27;20050;-47
2022/11/03 09:34:03;;;;;;;22.77;9.07;;;;;;;11.81;100.00;99614.91;5172838;27;20050;-49
2022/11/03 09:36:29;;;;;;;28.25;10.73;;;;;;;11.76;100.00;99611.31;5172978;27;20103;-48
2022/11/03 09:38:56;;;;;;;22.55;9.95;;;;;;;11.78;100.00;99598.00;5172712;27;20053;-48
2022/11/03 09:41:22;;;;;;;20.75;9.30;;;;;;;11.35;100.00;99588.06;5172565;27;20509;-49
2022/11/03 09:43:49;;;;;;;19.70;9.27;;;;;;;11.58;100.00;99568.94;5172870;27;20042;-47
2022/11/03 09:46:17;;;;;;;21.30;7.95;;;;;;;11.48;100.00;99567.56;5172678;27;20052;-47
2022/11/03 09:48:44;;;;;;;25.33;10.18;;;;;;;11.50;100.00;99564.47;5172440;27;20133;-48
2022/11/03 09:51:13;;;;;;;21.50;9.77;;;;;;;11.47;100.00;99555.00;5172368;27;20050;-47
2022/11/03 09:53:40;;;;;;;26.92;9.77;;;;;;;11.49;100.00;99555.41;5172832;27;20547;-48
2022/11/03 09:56:09;;;;;;;21.23;9.50;;;;;;;11.39;100.00;99547.75;5172684;27;20149;-47
2022/11/03 09:58:35;;;;;;;25.52;10.52;;;;;;;11.31;100.00;99535.84;5172823;27;20477;-48
2022/11/03 10:01:02;;;;;;;19.15;9.23;;;;;;;11.54;100.00;99524.94;5172322;27;20050;-46
2022/11/03 10:03:29;;;;;;;23.52;9.85;;;;;;;11.71;100.00;99534.69;5172433;27;20046;-47
2022/11/03 10:05:56;;;;;;;30.80;10.35;;;;;;;11.72;100.00;99544.50;5172320;27;20085;-48
2022/11/03 10:08:25;;;;;;;24.35;8.52;;;;;;;11.93;100.00;99559.84;5172439;27;20137;-47
2022/11/03 10:10:52;;;;;;;27.15;8.98;;;;;;;11.90;100.00;99564.13;5172362;27;20099;-50
2022/11/03 10:13:25;;;;;;;22.80;9.95;;;;;;;12.07;100.00;99557.38;5171934;27;20098;-48
2022/11/03 10:15:52;;;;;;;21.15;9.55;;;;;;;12.03;100.00;99562.00;5171368;27;20054;-48
2022/11/03 10:18:18;;;;;;;17.85;8.18;;;;;;;12.01;100.00;99578.84;5171890;27;20054;-48
2022/11/03 10:20:45;;;;;;;19.33;7.55;;;;;;;12.20;100.00;99586.25;5172326;27;20042;-48
2022/11/03 10:23:11;;;;;;;19.77;8.43;;;;;;;12.36;100.00;99586.16;5172029;27;20146;-48
2022/11/03 10:25:40;;;;;;;16.48;7.43;;;;;;;12.37;100.00;99614.44;5172567;27;20054;-49
2022/11/03 10:28:15;;;;;;;14.35;6.97;;;;;;;12.52;100.00;99627.25;5172023;27;20065;-51
2022/11/03 10:30:50;;;;;;;12.98;8.00;;;;;;;12.40;100.00;99632.97;5172196;27;20476;-54
2022/11/03 10:33:28;;;;;;;19.30;8.23;;;;;;;12.37;100.00;99628.97;5171876;27;20054;-46
2022/11/03 10:35:57;;;;;;;19.08;9.80;;;;;;;12.27;100.00;99634.28;5171930;27;20042;-48
2022/11/03 10:38:26;;;;;;;23.17;9.23;;;;;;;12.53;100.00;99622.53;5171985;27;20413;-49
2022/11/03 10:40:54;;;;;;;26.00;7.47;;;;;;;12.23;100.00;99635.00;5171790;27;20425;-48
2022/11/03 10:43:20;;;;;;;30.00;8.68;;;;;;;11.99;100.00;99630.59;5171938;27;20047;-47
2022/11/03 10:45:48;;;;;;;13.75;7.00;;;;;;;12.42;100.00;99623.16;5171914;27;20480;-50
2022/11/03 10:48:15;;;;;;;15.77;8.18;;;;;;;12.09;100.00;99634.72;5171816;27;20085;-47
2022/11/03 10:50:41;;;;;;;21.15;7.57;;;;;;;12.25;100.00;99632.69;5171668;27;20138;-47
2022/11/03 10:53:15;;;;;;;17.30;7.20;;;;;;;12.57;100.00;99632.47;5172008;27;20462;-49
2022/11/03 10:55:41;;;;;;;18.15;9.27;;;;;;;12.75;100.00;99641.00;5171632;27;20081;-48
2022/11/03 10:58:08;;;;;;;15.13;7.72;;;;;;;12.58;100.00;99645.06;5171926;27;20106;-48
2022/11/03 11:00:34;;;;;;;19.00;7.80;;;;;;;12.63;100.00;99635.72;5171575;27;20088;-47
2022/11/03 11:03:01;;;;;;;21.25;9.02;;;;;;;12.59;100.00;99632.09;5171661;27;20497;-48
2022/11/03 11:05:28;;;;;;;19.90;8.00;;;;;;;12.64;100.00;99637.28;5171678;27;20049;-47
2022/11/03 11:07:55;;;;;;;12.50;6.85;;;;;;;12.70;100.00;99625.63;5171462;27;20137;-48
2022/11/03 11:10:23;;;;;;;14.55;6.72;;;;;;;12.40;100.00;99639.25;5171489;27;20061;-49
2022/11/03 11:13:22;;;;;;;17.95;7.75;;;;;;;12.45;100.00;99638.13;5171394;27;20054;-48
2022/11/03 11:15:50;;;;;;;15.60;7.07;;;;;;;12.37;100.00;99650.19;5171382;27;20047;-48
2022/11/03 11:18:49;;;;;;;16.83;6.65;;;;;;;12.22;100.00;99649.09;5171431;27;20160;-49
2022/11/03 11:21:57;;;;;;;14.23;6.35;;;;;;;12.18;100.00;99643.53;5171575;27;20046;-48
2022/11/03 11:25:09;;;;;;;11.55;6.88;;;;;;;12.26;100.00;99641.72;5171623;27;20077;-48
2022/11/03 11:27:57;;;;;;;17.38;7.80;;;;;;;12.31;100.00;99633.19;5111440;27;20057;-48
2022/11/03 11:31:03;;;;;;;16.60;7.63;;;;;;;12.26;100.00;99636.22;5174932;27;20121;-50
2022/11/03 11:33:32;;;;;;;13.68;6.75;;;;;;;12.00;100.00;99642.41;5175140;27;20077;-50
2022/11/03 11:36:26;;;;;;;18.58;5.60;;;;;;;12.24;100.00;99633.84;5174816;27;20068;-51
2022/11/03 11:38:57;;;;;;;15.02;7.00;;;;;;;12.33;100.00;99633.63;5175078;27;20056;-48
2022/11/03 11:42:03;;;;;;;21.17;8.48;;;;;;;12.29;100.00;99638.25;5174719;27;20058;-50
2022/11/03 11:44:52;;;;;;;14.77;7.07;;;;;;;12.18;100.00;99646.28;5145357;27;20458;-48
2022/11/03 11:47:25;;;;;;;15.77;7.05;;;;;;;12.34;100.00;99640.69;5168586;27;20057;-47